Time;durP1;ratioP1;P1;durP2;ratioP2;P2;SDS_P1;SDS_P2;PMS_P1;PMS_P2;Temp;Humidity;BMP_temperature;BMP_pressure;BME280_temperature;BME280_humidity;BME280_pressure;Samples;Min_cycle;Max_cycle;Signal;HPM_P1;HPM_P2
2024/01/02 00:00:32;;;;;;;21.55;14.05;;;;;;;6.22;83.83;94489.91;5009158;28;20128;-69
2024/01/02 00:02:57;;;;;;;15.30;10.88;;;;;;;6.36;84.72;94491.50;4992750;28;20041;-69
2024/01/02 00:05:22;;;;;;;21.90;12.95;;;;;;;6.40;84.34;94503.22;5010134;28;20411;-70
2024/01/02 00:07:48;;;;;;;17.77;11.88;;;;;;;6.39;84.04;94495.63;5009111;28;20045;-67
2024/01/02 00:10:14;;;;;;;16.95;11.90;;;;;;;6.65;83.57;94501.47;4993323;28;20026;-67
2024/01/02 00:12:40;;;;;;;16.48;11.02;;;;;;;6.67;82.63;94508.19;4996347;28;20113;-67
2024/01/02 00:15:06;;;;;;;17.92;11.77;;;;;;;6.70;81.60;94489.88;5012438;28;20827;-67
2024/01/02 00:17:31;;;;;;;18.00;12.68;;;;;;;6.83;81.35;94510.47;5013183;28;20040;-67
2024/01/02 00:19:57;;;;;;;15.80;11.45;;;;;;;6.79;81.17;94492.72;4979711;28;20034;-67
2024/01/02 00:22:22;;;;;;;15.82;10.80;;;;;;;6.89;80.81;94504.06;4979618;28;20045;-67
2024/01/02 00:24:48;;;;;;;16.08;10.68;;;;;;;6.94;80.53;94501.97;5013680;28;20022;-67
2024/01/02 00:27:13;;;;;;;17.33;10.95;;;;;;;6.94;79.78;94494.22;4995558;28;20053;-67
2024/01/02 00:29:38;;;;;;;15.50;10.18;;;;;;;6.78;80.68;94506.59;4995882;28;20133;-67
2024/01/02 00:32:04;;;;;;;17.90;11.00;;;;;;;6.77;80.82;94510.09;5013305;28;20034;-67
2024/01/02 00:34:30;;;;;;;14.25;10.05;;;;;;;6.90;80.42;94511.66;4995871;28;20111;-67
2024/01/02 00:36:55;;;;;;;15.82;9.95;;;;;;;6.87;80.12;94501.56;5013500;28;20030;-67
2024/01/02 00:39:20;;;;;;;15.90;10.13;;;;;;;6.69;81.05;94502.91;4995843;28;20102;-67
2024/01/02 00:41:46;;;;;;;17.23;11.35;;;;;;;6.76;81.18;94492.97;5013408;28;20026;-67
2024/01/02 00:44:11;;;;;;;18.08;11.13;;;;;;;6.66;81.15;94501.38;4979720;28;20538;-67
2024/01/02 00:46:37;;;;;;;26.13;17.02;;;;;;;6.56;81.02;94500.38;5013445;28;20064;-67
2024/01/02 00:49:02;;;;;;;19.77;13.30;;;;;;;6.46;81.70;94486.50;4995873;28;20022;-67
2024/01/02 00:51:28;;;;;;;18.95;12.98;;;;;;;6.42;81.94;94490.25;5012276;28;20092;-67
2024/01/02 00:53:53;;;;;;;18.25;12.10;;;;;;;6.37;81.78;94484.56;4995428;28;20022;-67
2024/01/02 00:56:19;;;;;;;15.65;9.25;;;;;;;6.14;82.48;94474.13;5013028;28;20081;-67
2024/01/02 00:58:44;;;;;;;13.38;9.75;;;;;;;6.34;83.08;94485.63;5013099;28;20022;-68
2024/01/02 01:01:09;;;;;;;12.77;8.80;;;;;;;6.46;82.26;94481.31;4995391;28;20115;-67
2024/01/02 01:03:35;;;;;;;12.40;8.48;;;;;;;6.55;82.00;94480.69;5012737;28;20034;-67
2024/01/02 01:06:01;;;;;;;12.68;8.60;;;;;;;6.65;81.34;94476.47;5013006;28;20037;-67
2024/01/02 01:08:26;;;;;;;13.02;8.60;;;;;;;6.63;81.48;94480.09;4995003;28;20496;-67
2024/01/02 01:10:51;;;;;;;10.27;7.38;;;;;;;6.65;81.08;94475.66;5012960;28;20033;-68
2024/01/02 01:13:17;;;;;;;10.40;7.07;;;;;;;6.68;80.63;94481.41;5011931;28;20033;-67
2024/01/02 01:15:42;;;;;;;10.40;6.57;;;;;;;6.71;80.54;94481.22;5013232;28;20030;-67
2024/01/02 01:18:08;;;;;;;9.98;6.25;;;;;;;6.61;80.49;94466.50;4994614;28;20045;-68
2024/01/02 01:20:33;;;;;;;8.80;5.90;;;;;;;6.62;80.59;94463.81;4978906;28;20507;-67
2024/01/02 01:22:58;;;;;;;7.72;5.88;;;;;;;6.46;81.92;94469.28;4994272;28;20041;-67
2024/01/02 01:25:24;;;;;;;8.15;5.97;;;;;;;6.52;81.99;94469.75;4995199;28;20026;-67
2024/01/02 01:27:49;;;;;;;7.50;5.60;;;;;;;6.60;81.26;94470.88;5011429;28;20511;-67
2024/01/02 01:30:15;;;;;;;33.35;21.92;;;;;;;6.68;81.36;94468.50;4994878;28;20030;-68
2024/01/02 01:32:40;;;;;;;28.48;18.20;;;;;;;6.56;81.66;94472.00;4994705;28;20026;-67
2024/01/02 01:35:07;;;;;;;16.95;9.90;;;;;;;6.55;81.07;94464.38;4994514;28;20036;-67
2024/01/02 01:37:32;;;;;;;8.40;5.78;;;;;;;6.52;81.39;94469.75;4994662;28;20030;-67
2024/01/02 01:39:58;;;;;;;7.22;5.10;;;;;;;6.39;82.01;94464.66;5011888;28;20069;-67
2024/01/02 01:42:23;;;;;;;6.25;4.70;;;;;;;6.23;83.42;94465.75;5011437;28;20420;-67
2024/01/02 01:44:49;;;;;;;8.65;5.22;;;;;;;6.22;84.07;94463.28;5010551;28;20388;-67
2024/01/02 01:47:14;;;;;;;7.05;4.82;;;;;;;6.47;82.90;94464.94;4993895;28;20030;-67
2024/01/02 01:49:40;;;;;;;5.30;4.25;;;;;;;6.32;83.19;94466.84;4994376;28;20041;-67
2024/01/02 01:52:05;;;;;;;5.28;4.38;;;;;;;6.38;83.23;94476.75;4994319;28;20038;-67
2024/01/02 01:54:31;;;;;;;6.88;4.00;;;;;;;6.29;83.13;94473.97;5011787;28;20112;-67
2024/01/02 01:56:56;;;;;;;5.28;3.83;;;;;;;6.24;83.90;94463.97;5011575;28;20029;-67
2024/01/02 01:59:22;;;;;;;7.90;5.05;;;;;;;6.17;84.29;94458.44;5011862;28;20038;-67
2024/01/02 02:01:47;;;;;;;6.65;4.53;;;;;;;6.19;84.41;94450.59;4994171;28;20088;-67
2024/01/02 02:04:14;;;;;;;5.05;4.00;;;;;;;6.20;84.73;94453.06;4978011;28;20057;-67
2024/01/02 02:06:39;;;;;;;6.55;4.20;;;;;;;6.35;83.64;94452.91;4993936;28;20104;-67
2024/01/02 02:09:04;;;;;;;7.35;3.80;;;;;;;6.41;83.39;94455.88;4977660;28;20033;-67
2024/01/02 02:11:30;;;;;;;14.02;9.80;;;;;;;6.41;82.54;94444.75;5011295;28;20042;-67
2024/01/02 02:13:55;;;;;;;13.88;10.05;;;;;;;6.40;82.76;94440.50;5010626;28;20104;-67
2024/01/02 02:16:21;;;;;;;18.90;12.57;;;;;;;6.39;82.72;94447.41;4976407;28;20042;-67
2024/01/02 02:18:46;;;;;;;7.50;5.43;;;;;;;6.21;82.78;94434.09;5011553;28;20480;-67
2024/01/02 02:21:11;;;;;;;11.75;8.50;;;;;;;6.12;83.82;94450.19;5011709;28;20033;-67
2024/01/02 02:23:37;;;;;;;10.45;7.78;;;;;;;6.20;83.05;94445.31;5011064;28;20052;-67
2024/01/02 02:26:02;;;;;;;11.00;7.75;;;;;;;6.19;83.23;94451.44;5011507;28;20436;-67
2024/01/02 02:28:28;;;;;;;10.70;7.45;;;;;;;6.24;82.34;94449.34;5011253;28;20064;-67
2024/01/02 02:30:53;;;;;;;20.05;14.55;;;;;;;5.99;83.27;94447.69;5011442;28;20030;-67
2024/01/02 02:33:19;;;;;;;14.73;10.18;;;;;;;6.12;83.16;94447.63;4993412;28;20073;-67
2024/01/02 02:35:44;;;;;;;16.17;11.40;;;;;;;6.23;82.32;94449.44;4993261;28;20072;-67
2024/01/02 02:38:09;;;;;;;13.13;9.50;;;;;;;6.16;83.15;94451.66;4993553;28;20086;-67
2024/01/02 02:40:36;;;;;;;16.50;11.18;;;;;;;5.97;83.39;94448.72;5011361;28;20025;-67
2024/01/02 02:43:01;;;;;;;12.40;9.38;;;;;;;6.12;83.27;94451.97;4993587;28;20041;-67
2024/01/02 02:45:27;;;;;;;19.45;14.10;;;;;;;6.09;83.29;94453.00;5011158;28;20033;-67
2024/01/02 02:47:53;;;;;;;20.20;14.02;;;;;;;5.85;83.73;94449.53;4977212;28;20467;-67
2024/01/02 02:50:18;;;;;;;15.80;11.13;;;;;;;5.87;83.51;94458.81;5011632;28;20048;-67
2024/01/02 02:52:44;;;;;;;15.60;10.52;;;;;;;5.75;83.99;94423.59;4991526;28;20026;-67
2024/01/02 02:55:09;;;;;;;32.10;22.70;;;;;;;5.72;84.09;94458.13;5010907;28;20029;-68
2024/01/02 02:57:34;;;;;;;31.50;20.75;;;;;;;5.74;83.63;94450.28;5011034;28;20057;-68
2024/01/02 03:00:00;;;;;;;28.52;20.92;;;;;;;5.74;83.97;94455.44;5010787;28;20032;-69
2024/01/02 03:02:25;;;;;;;35.00;23.33;;;;;;;5.31;85.50;94448.09;5010951;28;20033;-69
2024/01/02 03:04:51;;;;;;;30.92;22.83;;;;;;;5.56;84.62;94449.81;5010771;28;20436;-70
2024/01/02 03:07:17;;;;;;;24.80;18.63;;;;;;;5.61;84.72;94440.03;5011015;28;20038;-70
2024/01/02 03:09:44;;;;;;;23.02;16.85;;;;;;;5.35;85.55;94446.97;4993364;28;20030;-70
2024/01/02 03:12:10;;;;;;;24.45;18.88;;;;;;;5.50;84.57;94447.66;5010971;28;20033;-69
2024/01/02 03:14:36;;;;;;;25.70;18.52;;;;;;;5.52;85.28;94448.38;5010863;28;20045;-70
2024/01/02 03:17:01;;;;;;;29.02;19.20;;;;;;;5.64;84.46;94449.28;5010967;28;20030;-67
2024/01/02 03:19:26;;;;;;;27.92;19.63;;;;;;;5.53;84.39;94429.41;4993419;28;20030;-69
2024/01/02 03:21:52;;;;;;;31.70;20.40;;;;;;;5.40;85.19;94441.47;4993251;28;20022;-70
2024/01/02 03:24:17;;;;;;;23.40;16.63;;;;;;;5.58;85.16;94448.78;4977041;28;20064;-67
2024/01/02 03:26:43;;;;;;;19.60;14.63;;;;;;;5.48;84.96;94446.94;4993379;28;20018;-67
2024/01/02 03:29:08;;;;;;;20.20;14.35;;;;;;;5.39;85.24;94445.81;5010828;28;20427;-71
2024/01/02 03:31:34;;;;;;;20.05;13.63;;;;;;;5.31;86.64;94446.34;5010800;28;20038;-71
2024/01/02 03:33:59;;;;;;;30.25;18.13;;;;;;;5.30;86.71;94438.72;4993210;28;20024;-69
2024/01/02 03:36:25;;;;;;;21.77;16.42;;;;;;;5.53;85.65;94452.59;4993201;28;20034;-70
2024/01/02 03:38:51;;;;;;;25.48;17.33;;;;;;;5.25;86.12;94444.19;4975807;28;20018;-69
2024/01/02 03:41:16;;;;;;;22.73;15.50;;;;;;;5.30;86.57;94454.19;4993365;28;20085;-70
2024/01/02 03:43:42;;;;;;;18.02;13.32;;;;;;;5.45;86.73;94447.16;4960547;28;20058;-69
2024/01/02 03:46:07;;;;;;;20.58;13.70;;;;;;;5.59;85.95;94439.28;4980539;28;20026;-70
2024/01/02 03:48:33;;;;;;;18.48;12.73;;;;;;;5.50;85.72;94429.63;4996835;28;20436;-69
2024/01/02 03:51:00;;;;;;;16.85;12.43;;;;;;;5.62;85.77;94451.13;4996671;28;20087;-70
2024/01/02 03:53:26;;;;;;;16.27;11.98;;;;;;;5.61;85.33;94434.88;4980769;28;20143;-69
2024/01/02 03:55:51;;;;;;;16.73;11.15;;;;;;;5.65;85.54;94448.34;4995195;28;20492;-69
2024/01/02 03:58:17;;;;;;;20.67;12.35;;;;;;;5.15;85.90;94407.94;5011903;28;20050;-69
2024/01/02 04:00:42;;;;;;;22.67;15.50;;;;;;;5.36;86.28;94428.81;5012747;28;20029;-69
2024/01/02 04:03:07;;;;;;;17.80;11.65;;;;;;;5.31;85.99;94442.94;5013275;28;20038;-70
2024/01/02 04:05:33;;;;;;;17.60;11.98;;;;;;;5.49;85.88;94443.41;5013022;28;20037;-67
2024/01/02 04:07:58;;;;;;;18.25;13.35;;;;;;;5.60;85.33;94446.94;4979797;28;20401;-69
2024/01/02 04:10:24;;;;;;;18.75;12.63;;;;;;;5.50;85.93;94457.97;4979740;28;20037;-69
2024/01/02 04:12:49;;;;;;;18.77;13.30;;;;;;;5.57;85.69;94448.88;5013964;28;20030;-69
2024/01/02 04:15:15;;;;;;;19.38;14.23;;;;;;;5.55;85.86;94443.03;5010002;28;20045;-69
2024/01/02 04:17:40;;;;;;;20.20;13.38;;;;;;;5.53;85.96;94444.88;5012382;28;20042;-69
2024/01/02 04:20:06;;;;;;;15.85;9.93;;;;;;;5.63;85.97;94453.63;5012527;28;20424;-69
2024/01/02 04:22:31;;;;;;;16.85;12.00;;;;;;;5.42;86.20;94453.34;4994474;28;20052;-69
2024/01/02 04:24:57;;;;;;;14.65;10.52;;;;;;;5.44;85.53;94455.81;5013467;28;20246;-68
2024/01/02 04:27:22;;;;;;;27.20;16.75;;;;;;;5.26;86.38;94458.69;5012169;28;20549;-67
2024/01/02 04:29:48;;;;;;;14.85;10.07;;;;;;;5.45;86.13;94462.59;4995916;28;20057;-68
2024/01/02 04:32:14;;;;;;;13.13;8.57;;;;;;;5.40;86.13;94465.50;5011773;28;20036;-68
2024/01/02 04:34:40;;;;;;;8.38;5.93;;;;;;;5.51;85.63;94459.59;5012319;28;20121;-67
2024/01/02 04:37:05;;;;;;;8.85;5.90;;;;;;;5.50;86.14;94471.66;5013534;28;20084;-68
2024/01/02 04:39:30;;;;;;;7.35;4.75;;;;;;;5.69;85.99;94475.56;5013065;28;20064;-68
2024/01/02 04:41:56;;;;;;;7.55;4.35;;;;;;;5.66;85.86;94476.59;5012124;28;20037;-67
2024/01/02 04:44:21;;;;;;;6.47;4.53;;;;;;;5.51;86.12;94465.56;5011765;28;20034;-67
2024/01/02 04:46:46;;;;;;;9.07;4.93;;;;;;;5.74;85.75;94458.88;5013159;28;20026;-67
2024/01/02 04:49:13;;;;;;;7.22;4.78;;;;;;;5.74;86.04;94458.00;4995547;28;20465;-68
2024/01/02 04:51:38;;;;;;;5.75;4.15;;;;;;;5.82;85.66;94456.56;4995258;28;20156;-67
2024/01/02 04:54:04;;;;;;;6.45;3.97;;;;;;;5.80;85.58;94444.72;5011257;28;20457;-68
2024/01/02 04:56:29;;;;;;;6.30;4.38;;;;;;;5.79;85.41;94454.22;5012453;28;20084;-67
2024/01/02 04:58:55;;;;;;;7.25;4.65;;;;;;;5.73;86.28;94462.34;5013063;28;20083;-68
2024/01/02 05:01:20;;;;;;;7.25;4.97;;;;;;;5.60;86.48;94459.00;5013050;28;20385;-67
2024/01/02 05:03:45;;;;;;;13.82;12.52;;;;;;;5.70;86.55;94470.28;5011725;28;20523;-67
2024/01/02 05:06:11;;;;;;;10.10;5.53;;;;;;;5.69;86.67;94460.13;5013622;28;20030;-67
2024/01/02 05:08:36;;;;;;;7.80;5.50;;;;;;;5.80;86.20;94460.19;4995401;28;20037;-68
2024/01/02 05:11:02;;;;;;;10.57;4.82;;;;;;;5.70;86.49;94457.41;5005512;28;20033;-68
2024/01/02 05:13:27;;;;;;;7.60;4.68;;;;;;;5.74;86.25;94438.25;5001775;28;20057;-68
2024/01/02 05:15:53;;;;;;;6.85;4.40;;;;;;;5.81;86.56;94459.25;4988028;28;20512;-69
2024/01/02 05:18:18;;;;;;;6.70;4.35;;;;;;;5.83;86.55;94465.13;5007157;28;20505;-68
2024/01/02 05:20:43;;;;;;;9.10;6.00;;;;;;;5.92;86.47;94468.81;5007568;28;20499;-68
2024/01/02 05:23:09;;;;;;;8.98;5.40;;;;;;;5.93;86.54;94473.03;5005159;28;20037;-68
2024/01/02 05:25:34;;;;;;;8.30;5.10;;;;;;;6.01;86.09;94470.78;4973120;28;20060;-68
2024/01/02 05:28:00;;;;;;;6.72;5.15;;;;;;;5.97;86.15;94466.78;4989459;28;20026;-68
2024/01/02 05:30:25;;;;;;;5.93;4.63;;;;;;;6.04;85.86;94478.28;5007920;28;20037;-68
2024/01/02 05:32:51;;;;;;;7.78;5.03;;;;;;;5.94;85.92;94482.47;4985709;28;20184;-68
2024/01/02 05:35:16;;;;;;;7.40;5.22;;;;;;;5.98;85.74;94486.47;4990296;28;20043;-68
2024/01/02 05:37:41;;;;;;;8.85;6.18;;;;;;;5.75;86.93;94483.69;4990855;28;20026;-68
2024/01/02 05:40:26;;;;;;;10.68;7.30;;;;;;;5.92;86.19;94484.28;4957141;28;20042;-68
2024/01/02 05:42:51;;;;;;;10.63;6.50;;;;;;;5.91;86.44;94496.34;4987852;28;20033;-68
2024/01/02 05:45:16;;;;;;;7.53;5.57;;;;;;;5.63;87.37;94500.00;4991179;28;20034;-68
2024/01/02 05:47:42;;;;;;;6.68;5.18;;;;;;;5.79;86.78;94504.91;5007707;28;20030;-68
2024/01/02 05:50:08;;;;;;;9.10;6.93;;;;;;;5.69;86.59;94503.94;5009180;28;20416;-68
2024/01/02 05:52:33;;;;;;;4.95;4.07;;;;;;;5.56;86.85;94503.94;4971216;28;20038;-67
2024/01/02 05:54:59;;;;;;;5.60;3.45;;;;;;;5.60;86.62;94511.34;5008541;28;20068;-68
2024/01/02 05:57:24;;;;;;;5.65;4.28;;;;;;;5.51;87.18;94518.88;4989554;28;20033;-68
2024/01/02 05:59:49;;;;;;;4.82;3.08;;;;;;;5.61;86.85;94519.91;5006476;28;20026;-67
2024/01/02 06:02:15;;;;;;;5.03;3.70;;;;;;;5.56;87.05;94506.50;5006199;28;20044;-68
2024/01/02 06:04:40;;;;;;;5.68;4.22;;;;;;;5.63;86.53;94525.78;4989570;28;20480;-67
2024/01/02 06:07:06;;;;;;;4.30;3.25;;;;;;;5.59;86.34;94524.34;4990359;28;20041;-68
2024/01/02 06:09:31;;;;;;;3.60;2.63;;;;;;;5.67;85.99;94529.78;5008663;28;20029;-68
2024/01/02 06:11:57;;;;;;;8.65;5.88;;;;;;;5.52;86.27;94536.81;4988791;28;20525;-68
2024/01/02 06:14:23;;;;;;;32.33;18.73;;;;;;;5.62;85.83;94542.16;4996867;28;20409;-68
2024/01/02 06:16:48;;;;;;;40.55;21.25;;;;;;;5.66;85.95;94535.88;5004515;28;20171;-68
2024/01/02 06:19:17;;;;;;;29.17;14.10;;;;;;;5.69;85.19;94545.97;5007317;28;20059;-68
2024/01/02 06:21:43;;;;;;;31.55;17.92;;;;;;;5.77;85.05;94537.72;5007231;28;20030;-68
2024/01/02 06:24:08;;;;;;;17.85;9.57;;;;;;;5.53;86.10;94559.06;5005915;28;20042;-68
2024/01/02 06:26:34;;;;;;;70.90;31.45;;;;;;;5.46;86.62;94552.69;5006697;28;20034;-68
2024/01/02 06:28:59;;;;;;;29.80;14.60;;;;;;;5.44;85.81;94564.03;5006081;28;20034;-68
2024/01/02 06:31:24;;;;;;;2.70;2.00;;;;;;;5.18;86.21;94563.97;5005276;28;20038;-68
2024/01/02 06:33:51;;;;;;;2.97;1.90;;;;;;;5.30;86.11;94573.47;5002611;28;20029;-69
2024/01/02 06:36:16;;;;;;;8.13;4.68;;;;;;;5.30;85.40;94577.81;5008022;28;20041;-68
2024/01/02 06:38:42;;;;;;;6.88;4.20;;;;;;;5.28;85.66;94572.75;5006387;28;20026;-68
2024/01/02 06:41:07;;;;;;;2.65;1.48;;;;;;;5.08;85.91;94573.25;5003991;28;20022;-68
2024/01/02 06:43:33;;;;;;;3.17;1.92;;;;;;;5.20;85.68;94579.34;5004430;28;20092;-69
2024/01/02 06:46:00;;;;;;;3.60;2.40;;;;;;;5.19;85.43;94569.97;5003473;28;20030;-69
2024/01/02 06:48:25;;;;;;;2.72;2.00;;;;;;;5.40;84.92;94578.84;4990502;28;20034;-69
2024/01/02 06:50:50;;;;;;;3.05;2.35;;;;;;;5.50;84.60;94579.88;5002718;28;20483;-72
2024/01/02 06:53:16;;;;;;;4.10;2.40;;;;;;;5.49;84.71;94587.69;4987337;28;20025;-69
2024/01/02 06:55:41;;;;;;;3.92;2.90;;;;;;;5.55;84.66;94587.31;5010680;28;20034;-69
2024/01/02 06:58:07;;;;;;;4.22;3.15;;;;;;;5.53;84.67;94579.69;5009207;28;20022;-68
2024/01/02 07:00:33;;;;;;;3.67;1.80;;;;;;;5.43;84.91;94603.56;5005523;28;20026;-68
2024/01/02 07:02:59;;;;;;;2.78;1.70;;;;;;;5.27;85.61;94612.31;5005161;28;20407;-68
2024/01/02 07:05:25;;;;;;;3.15;1.90;;;;;;;5.20;85.91;94611.06;5009397;28;20117;-71
2024/01/02 07:07:50;;;;;;;2.83;1.90;;;;;;;5.23;85.64;94616.00;5009146;28;20037;-68
2024/01/02 07:10:16;;;;;;;3.85;2.45;;;;;;;5.17;85.76;94613.84;5009557;28;20038;-68
2024/01/02 07:12:41;;;;;;;8.02;3.42;;;;;;;5.02;86.50;94589.91;5010442;28;20424;-69
2024/01/02 07:15:07;;;;;;;4.32;2.95;;;;;;;5.08;86.33;94611.88;4992700;28;20042;-69
2024/01/02 07:17:32;;;;;;;4.95;3.17;;;;;;;4.98;86.85;94583.28;5007060;28;20045;-69
2024/01/02 07:20:00;;;;;;;6.32;2.33;;;;;;;5.02;86.87;94591.66;4995434;28;20408;-69
2024/01/02 07:22:28;;;;;;;3.25;1.92;;;;;;;4.98;86.60;94603.06;5014843;28;20034;-68
2024/01/02 07:24:54;;;;;;;5.28;2.70;;;;;;;4.97;87.17;94601.44;4997248;28;20032;-69
2024/01/02 07:27:19;;;;;;;2.95;1.70;;;;;;;4.99;87.43;94607.31;5008124;28;20061;-69
2024/01/02 07:29:45;;;;;;;3.00;2.20;;;;;;;5.00;87.13;94606.38;5008876;28;20603;-69
2024/01/02 07:32:10;;;;;;;7.28;3.60;;;;;;;5.15;87.02;94607.94;5012917;28;20523;-68
2024/01/02 07:34:36;;;;;;;4.68;2.47;;;;;;;5.21;86.34;94615.31;4996164;28;20056;-68
2024/01/02 07:37:01;;;;;;;5.47;2.90;;;;;;;5.10;86.91;94620.31;4995407;28;20523;-69
2024/01/02 07:39:26;;;;;;;4.88;3.83;;;;;;;5.08;86.75;94633.28;5012957;28;20042;-68
2024/01/02 07:41:52;;;;;;;3.90;3.13;;;;;;;4.82;87.00;94622.06;4995111;28;20026;-68
2024/01/02 07:44:18;;;;;;;12.35;7.75;;;;;;;4.99;85.70;94633.06;5010872;28;20111;-68
2024/01/02 07:46:43;;;;;;;2.38;1.50;;;;;;;4.74;85.91;94629.47;5011529;28;20420;-68
2024/01/02 07:49:09;;;;;;;3.53;2.40;;;;;;;4.82;85.92;94618.66;4998285;28;20038;-68
2024/01/02 07:51:35;;;;;;;3.38;2.08;;;;;;;4.72;86.57;94633.88;4992700;28;20057;-68
2024/01/02 07:54:01;;;;;;;4.20;2.70;;;;;;;4.80;86.22;94636.78;4977324;28;20034;-68
2024/01/02 07:56:26;;;;;;;2.95;1.98;;;;;;;4.90;85.58;94637.88;4995113;28;20034;-70
2024/01/02 07:58:52;;;;;;;5.75;2.72;;;;;;;4.97;85.55;94640.88;4994640;28;20026;-68
2024/01/02 08:01:17;;;;;;;7.53;3.22;;;;;;;4.88;86.26;94642.28;5000673;28;20038;-68
2024/01/02 08:03:44;;;;;;;8.93;3.97;;;;;;;4.78;85.54;94630.09;5013660;28;20033;-68
2024/01/02 08:06:09;;;;;;;11.48;4.30;;;;;;;4.84;86.20;94645.94;5013251;28;20183;-68
2024/01/02 08:08:34;;;;;;;6.38;3.58;;;;;;;4.93;86.61;94641.97;5012779;28;20485;-68
2024/01/02 08:11:00;;;;;;;5.05;2.83;;;;;;;4.89;86.09;94655.97;5014615;28;20060;-68
2024/01/02 08:13:25;;;;;;;6.55;2.85;;;;;;;4.93;87.71;94650.53;5012636;28;20026;-68
2024/01/02 08:15:51;;;;;;;4.80;2.25;;;;;;;4.83;87.42;94661.50;4980550;28;20491;-68
2024/01/02 08:18:16;;;;;;;3.28;2.05;;;;;;;4.82;87.21;94660.69;5013942;28;20049;-68
2024/01/02 08:20:41;;;;;;;3.50;2.15;;;;;;;4.74;86.32;94664.66;4996190;28;20026;-68
2024/01/02 08:23:07;;;;;;;3.22;1.80;;;;;;;4.80;86.76;94657.38;4963751;28;20045;-69
2024/01/02 08:25:33;;;;;;;4.10;2.78;;;;;;;5.20;86.38;94670.28;4996235;28;20026;-68
2024/01/02 08:27:58;;;;;;;4.88;2.88;;;;;;;4.99;87.10;94661.38;5013765;28;20037;-68
2024/01/02 08:30:24;;;;;;;4.47;2.55;;;;;;;5.07;86.12;94657.41;5013441;28;20032;-68
2024/01/02 08:32:50;;;;;;;5.10;2.40;;;;;;;5.11;85.96;94666.56;4977852;28;20037;-68
2024/01/02 08:35:16;;;;;;;3.85;1.90;;;;;;;5.18;85.86;94666.97;5013641;28;20030;-68
2024/01/02 08:37:42;;;;;;;2.97;1.75;;;;;;;5.25;85.15;94667.44;4995983;28;20084;-68
2024/01/02 08:40:08;;;;;;;3.90;2.30;;;;;;;5.32;85.47;94664.38;5013875;28;20116;-68
2024/01/02 08:42:34;;;;;;;4.40;1.50;;;;;;;5.30;85.04;94657.66;5013300;28;20037;-68
2024/01/02 08:44:59;;;;;;;2.85;1.52;;;;;;;5.45;84.51;94666.13;5013331;28;20034;-68
2024/01/02 08:47:25;;;;;;;2.65;1.73;;;;;;;5.31;84.31;94661.88;5012758;28;20033;-68
2024/01/02 08:49:50;;;;;;;4.70;2.45;;;;;;;5.04;84.75;94664.47;4978906;28;20427;-68
2024/01/02 08:52:16;;;;;;;3.92;2.60;;;;;;;5.08;85.06;94658.22;4995181;28;20431;-68
2024/01/02 08:54:41;;;;;;;3.83;2.40;;;;;;;5.07;85.35;94661.69;4995701;28;20431;-68
2024/01/02 08:57:06;;;;;;;5.07;3.30;;;;;;;5.22;84.59;94663.31;5012417;28;20037;-68
2024/01/02 08:59:32;;;;;;;3.85;2.53;;;;;;;5.16;84.99;94663.69;4979177;28;20034;-68
2024/01/02 09:01:58;;;;;;;3.85;2.70;;;;;;;5.31;85.04;94661.88;4995942;28;20426;-68
2024/01/02 09:04:24;;;;;;;5.00;3.30;;;;;;;5.57;85.18;94667.91;4995550;28;20037;-68
2024/01/02 09:06:51;;;;;;;6.18;3.80;;;;;;;5.47;85.47;94666.88;4979392;28;20041;-68
2024/01/02 09:09:17;;;;;;;7.72;5.15;;;;;;;5.63;85.00;94666.69;4979366;28;20030;-68
2024/01/02 09:11:42;;;;;;;4.63;3.03;;;;;;;5.30;84.89;94671.38;5012954;28;20034;-68
2024/01/02 09:14:08;;;;;;;5.20;3.40;;;;;;;5.14;85.44;94668.94;5012917;28;20049;-68
2024/01/02 09:16:35;;;;;;;5.32;3.55;;;;;;;5.42;84.79;94641.41;4995240;28;20112;-68
2024/01/02 09:19:01;;;;;;;5.05;3.50;;;;;;;5.63;83.97;94661.53;5012786;28;20116;-68
2024/01/02 09:21:27;;;;;;;6.30;3.75;;;;;;;5.60;84.14;94662.56;4995210;28;20420;-69
2024/01/02 09:23:53;;;;;;;9.00;4.72;;;;;;;5.73;83.76;94647.13;4979029;28;20021;-68
2024/01/02 09:26:19;;;;;;;5.45;3.70;;;;;;;5.53;84.54;94648.44;4995280;28;20030;-68
2024/01/02 09:28:44;;;;;;;3.90;3.00;;;;;;;5.37;84.70;94653.75;4979068;28;20029;-68
2024/01/02 09:31:10;;;;;;;5.82;2.88;;;;;;;5.65;84.34;94657.09;4995380;28;20076;-68
2024/01/02 09:33:38;;;;;;;18.83;9.73;;;;;;;5.65;84.32;94645.03;5012490;28;20056;-68
2024/01/02 09:36:04;;;;;;;84.20;27.40;;;;;;;5.81;83.73;94635.34;5012980;28;20026;-68
2024/01/02 09:38:29;;;;;;;64.55;26.02;;;;;;;5.89;83.63;94652.09;4994853;28;20042;-68
2024/01/02 09:41:20;;;;;;;16.55;8.27;;;;;;;6.12;82.89;94643.63;4995107;28;20026;-68
2024/01/02 09:43:51;;;;;;;4.70;2.63;;;;;;;6.03;82.55;94649.44;4994413;28;20427;-68
2024/01/02 09:46:19;;;;;;;;;;;;;;;5.89;83.10;94646.94;5012842;28;20125;-68
2024/01/02 09:48:58;;;;;;;3.38;2.40;;;;;;;6.17;82.40;94641.56;5012275;28;19913;-68
2024/01/02 09:51:41;;;;;;;3.30;2.10;;;;;;;6.11;82.38;94644.59;5012486;28;20026;-68
2024/01/02 09:54:18;;;;;;;3.42;2.30;;;;;;;5.93;82.33;94638.91;4979953;28;20461;-68
2024/01/02 09:56:48;;;;;;;3.85;2.65;;;;;;;6.24;82.46;94619.59;4994478;28;20046;-68
2024/01/02 09:59:48;;;;;;;3.70;2.25;;;;;;;6.28;82.83;94627.13;4994668;28;20030;-68
2024/01/02 10:02:46;;;;;;;3.15;2.03;;;;;;;6.31;82.61;94624.34;4994474;28;20025;-68
2024/01/02 10:05:36;;;;;;;3.20;2.13;;;;;;;6.34;82.69;94606.88;4943203;28;20045;-68
2024/01/02 10:08:22;;;;;;;3.70;2.45;;;;;;;6.47;82.66;94612.03;4994216;28;20412;-68
2024/01/02 10:10:51;;;;;;;2.95;2.30;;;;;;;6.51;81.57;94608.28;4996855;28;20026;-68
2024/01/02 10:13:39;;;;;;;4.25;2.67;;;;;;;6.38;82.00;94585.09;4993934;28;20081;-68
2024/01/02 10:16:35;;;;;;;4.13;3.00;;;;;;;6.56;78.96;94601.03;4979035;28;20103;-68
2024/01/02 10:19:13;;;;;;;5.55;2.90;;;;;;;6.60;79.27;94602.50;5011710;28;20069;-69
2024/01/02 10:21:48;;;;;;;4.70;3.00;;;;;;;6.45;79.59;94570.81;4994073;28;20120;-69
2024/01/02 10:24:49;;;;;;;5.18;3.28;;;;;;;6.49;80.23;94602.41;5011612;28;20045;-70
2024/01/02 10:27:15;;;;;;;15.13;13.27;;;;;;;6.59;80.61;94602.59;4994214;28;20029;-69
2024/01/02 10:29:52;;;;;;;7.57;6.15;;;;;;;6.71;80.01;94587.06;4994033;28;20120;-69
2024/01/02 10:32:26;;;;;;;5.90;4.15;;;;;;;6.60;79.87;94592.16;4994455;28;20420;-70
2024/01/02 10:35:11;;;;;;;7.35;4.60;;;;;;;6.85;78.13;94585.25;4978902;28;20037;-69
2024/01/02 10:37:41;;;;;;;4.85;3.92;;;;;;;6.97;77.43;94584.38;4977812;28;20492;-69
2024/01/02 10:40:09;;;;;;;6.78;5.07;;;;;;;6.69;77.76;94568.28;4994567;28;20042;-69
2024/01/02 10:43:04;;;;;;;6.72;5.05;;;;;;;6.58;78.39;94573.38;4961661;28;20530;-69
2024/01/02 10:45:37;;;;;;;10.25;6.38;;;;;;;6.52;78.47;94575.56;4996101;28;20124;-70
2024/01/02 10:48:29;;;;;;;11.23;6.43;;;;;;;6.87;78.98;94573.06;4994673;28;20397;-70
2024/01/02 10:51:06;;;;;;;6.30;4.72;;;;;;;6.94;77.02;94563.94;4996589;28;20030;-69
2024/01/02 10:53:54;;;;;;;6.38;4.45;;;;;;;6.68;77.09;94571.78;4978063;28;20421;-70
2024/01/02 10:56:38;;;;;;;4.47;3.40;;;;;;;6.22;78.35;94572.44;4979950;28;20072;-69
2024/01/02 10:59:14;;;;;;;4.70;2.90;;;;;;;6.63;77.90;94578.19;4978507;28;20040;-69
2024/01/02 11:01:40;;;;;;;4.32;2.60;;;;;;;6.83;75.40;94572.44;5011125;28;20095;-69
2024/01/02 11:04:10;;;;;;;6.00;3.28;;;;;;;6.75;76.40;94564.44;4977105;28;20129;-69
2024/01/02 11:06:45;;;;;;;5.70;3.47;;;;;;;6.85;76.57;94570.59;4993990;28;20041;-70
2024/01/02 11:09:20;;;;;;;6.10;4.25;;;;;;;7.00;77.64;94562.66;4961830;28;20346;-69
2024/01/02 11:11:50;;;;;;;10.35;4.88;;;;;;;6.93;78.02;94562.28;4993488;28;20088;-69
2024/01/02 11:14:15;;;;;;;7.25;4.22;;;;;;;6.94;78.41;94553.59;4999484;28;20042;-70
2024/01/02 11:16:41;;;;;;;8.82;4.85;;;;;;;7.11;77.44;94554.97;4993510;28;20467;-70
2024/01/02 11:19:06;;;;;;;9.13;6.20;;;;;;;6.93;77.48;94542.44;4993422;28;20382;-69
2024/01/02 11:21:58;;;;;;;10.93;7.78;;;;;;;6.88;77.51;94556.59;4993430;28;20030;-69
2024/01/02 11:24:24;;;;;;;7.80;4.85;;;;;;;6.95;76.18;94544.91;4982683;28;20128;-69
2024/01/02 11:26:51;;;;;;;7.07;3.90;;;;;;;7.12;76.15;94544.50;5009786;28;20099;-69
2024/01/02 11:29:24;;;;;;;5.90;4.65;;;;;;;7.20;77.31;94548.28;4993495;28;20104;-70
2024/01/02 11:31:51;;;;;;;6.50;3.80;;;;;;;7.54;75.74;94539.66;5009725;28;20107;-69
2024/01/02 11:34:22;;;;;;;4.50;3.05;;;;;;;7.61;75.71;94540.03;4993303;28;20029;-70
2024/01/02 11:37:06;;;;;;;6.68;3.20;;;;;;;7.58;73.29;94538.50;5011081;28;20386;-68